sensor_id;sensor_type;location;lat;lon;timestamp;P1;durP1;ratioP1;P2;durP2;ratioP2
72761;SDS011;60886;55.034;73.150;2023-04-09T00:02:13;7.53;;;2.10;;
72761;SDS011;60886;55.034;73.150;2023-04-09T00:05:15;7.28;;;2.17;;
72761;SDS011;60886;55.034;73.150;2023-04-09T00:08:17;6.68;;;2.33;;
72761;SDS011;60886;55.034;73.150;2023-04-09T00:11:18;9.50;;;2.28;;
72761;SDS011;60886;55.034;73.150;2023-04-09T00:14:20;10.50;;;2.50;;
72761;SDS011;60886;55.034;73.150;2023-04-09T00:17:22;11.07;;;2.67;;
72761;SDS011;60886;55.034;73.150;2023-04-09T00:20:23;9.23;;;2.30;;
72761;SDS011;60886;55.034;73.150;2023-04-09T00:23:25;10.50;;;3.15;;
72761;SDS011;60886;55.034;73.150;2023-04-09T00:26:31;9.33;;;2.90;;
72761;SDS011;60886;55.034;73.150;2023-04-09T00:29:37;9.93;;;3.00;;
72761;SDS011;60886;55.034;73.150;2023-04-09T00:32:39;11.43;;;3.15;;
72761;SDS011;60886;55.034;73.150;2023-04-09T00:35:45;9.03;;;2.60;;
72761;SDS011;60886;55.034;73.150;2023-04-09T00:38:46;8.95;;;2.85;;
72761;SDS011;60886;55.034;73.150;2023-04-09T00:41:54;10.13;;;3.23;;
72761;SDS011;60886;55.034;73.150;2023-04-09T00:44:59;11.30;;;3.22;;
72761;SDS011;60886;55.034;73.150;2023-04-09T00:48:13;8.75;;;3.00;;
72761;SDS011;60886;55.034;73.150;2023-04-09T00:51:16;11.10;;;2.80;;
72761;SDS011;60886;55.034;73.150;2023-04-09T00:54:17;7.32;;;2.35;;
72761;SDS011;60886;55.034;73.150;2023-04-09T00:57:19;7.40;;;2.10;;
72761;SDS011;60886;55.034;73.150;2023-04-09T01:00:20;7.35;;;2.40;;
72761;SDS011;60886;55.034;73.150;2023-04-09T01:03:22;8.98;;;2.80;;
72761;SDS011;60886;55.034;73.150;2023-04-09T01:06:27;8.88;;;3.33;;
72761;SDS011;60886;55.034;73.150;2023-04-09T01:09:34;10.23;;;2.95;;
72761;SDS011;60886;55.034;73.150;2023-04-09T01:16:03;8.82;;;2.85;;
72761;SDS011;60886;55.034;73.150;2023-04-09T01:19:09;9.75;;;3.10;;
72761;SDS011;60886;55.034;73.150;2023-04-09T01:22:23;12.07;;;2.70;;
72761;SDS011;60886;55.034;73.150;2023-04-09T01:29:02;10.20;;;2.70;;
72761;SDS011;60886;55.034;73.150;2023-04-09T01:32:07;9.70;;;2.27;;
72761;SDS011;60886;55.034;73.150;2023-04-09T01:35:10;9.22;;;2.32;;
72761;SDS011;60886;55.034;73.150;2023-04-09T01:38:22;9.40;;;2.30;;
72761;SDS011;60886;55.034;73.150;2023-04-09T01:41:30;9.47;;;2.20;;
72761;SDS011;60886;55.034;73.150;2023-04-09T01:44:33;9.93;;;2.40;;
72761;SDS011;60886;55.034;73.150;2023-04-09T01:47:36;10.75;;;2.30;;
72761;SDS011;60886;55.034;73.150;2023-04-09T01:50:38;8.82;;;2.10;;
72761;SDS011;60886;55.034;73.150;2023-04-09T01:53:41;8.63;;;1.90;;
72761;SDS011;60886;55.034;73.150;2023-04-09T01:56:52;7.70;;;2.05;;
72761;SDS011;60886;55.034;73.150;2023-04-09T02:00:08;7.28;;;2.00;;
72761;SDS011;60886;55.034;73.150;2023-04-09T02:03:24;8.07;;;2.00;;
72761;SDS011;60886;55.034;73.150;2023-04-09T02:06:30;10.33;;;2.30;;
72761;SDS011;60886;55.034;73.150;2023-04-09T02:09:42;7.93;;;1.95;;
72761;SDS011;60886;55.034;73.150;2023-04-09T02:12:48;8.45;;;2.03;;
72761;SDS011;60886;55.034;73.150;2023-04-09T02:15:52;7.13;;;2.00;;
72761;SDS011;60886;55.034;73.150;2023-04-09T02:18:54;6.90;;;2.03;;
72761;SDS011;60886;55.034;73.150;2023-04-09T02:22:03;6.50;;;1.80;;
72761;SDS011;60886;55.034;73.150;2023-04-09T02:25:14;6.95;;;2.13;;
72761;SDS011;60886;55.034;73.150;2023-04-09T02:28:16;10.60;;;2.27;;
72761;SDS011;60886;55.034;73.150;2023-04-09T02:31:18;6.90;;;2.00;;
72761;SDS011;60886;55.034;73.150;2023-04-09T02:34:19;8.57;;;2.00;;
72761;SDS011;60886;55.034;73.150;2023-04-09T02:37:22;7.90;;;2.05;;
72761;SDS011;60886;55.034;73.150;2023-04-09T02:40:23;8.90;;;2.20;;
72761;SDS011;60886;55.034;73.150;2023-04-09T02:43:25;6.90;;;2.20;;
72761;SDS011;60886;55.034;73.150;2023-04-09T02:46:26;7.43;;;2.03;;
72761;SDS011;60886;55.034;73.150;2023-04-09T02:49:28;8.27;;;1.92;;
72761;SDS011;60886;55.034;73.150;2023-04-09T02:52:29;6.80;;;2.00;;
72761;SDS011;60886;55.034;73.150;2023-04-09T02:55:31;7.27;;;2.10;;
72761;SDS011;60886;55.034;73.150;2023-04-09T02:58:32;7.00;;;1.73;;
72761;SDS011;60886;55.034;73.150;2023-04-09T03:01:34;8.13;;;2.00;;
72761;SDS011;60886;55.034;73.150;2023-04-09T03:04:36;7.18;;;1.90;;
72761;SDS011;60886;55.034;73.150;2023-04-09T03:07:37;6.10;;;1.70;;
72761;SDS011;60886;55.034;73.150;2023-04-09T03:10:38;6.40;;;1.80;;
72761;SDS011;60886;55.034;73.150;2023-04-09T03:13:40;7.30;;;1.87;;
72761;SDS011;60886;55.034;73.150;2023-04-09T03:16:43;6.22;;;1.63;;
72761;SDS011;60886;55.034;73.150;2023-04-09T03:19:45;6.78;;;1.70;;
72761;SDS011;60886;55.034;73.150;2023-04-09T03:22:47;7.93;;;1.80;;
72761;SDS011;60886;55.034;73.150;2023-04-09T03:26:12;8.95;;;2.22;;
72761;SDS011;60886;55.034;73.150;2023-04-09T03:29:20;7.10;;;1.80;;
72761;SDS011;60886;55.034;73.150;2023-04-09T03:32:22;6.90;;;1.80;;
72761;SDS011;60886;55.034;73.150;2023-04-09T03:35:23;7.07;;;1.73;;
72761;SDS011;60886;55.034;73.150;2023-04-09T03:38:31;7.03;;;1.80;;
72761;SDS011;60886;55.034;73.150;2023-04-09T03:41:36;5.70;;;1.60;;
72761;SDS011;60886;55.034;73.150;2023-04-09T03:44:40;5.80;;;1.65;;
72761;SDS011;60886;55.034;73.150;2023-04-09T03:47:45;11.27;;;4.18;;
72761;SDS011;60886;55.034;73.150;2023-04-09T03:50:47;7.57;;;1.90;;
72761;SDS011;60886;55.034;73.150;2023-04-09T03:53:55;5.75;;;1.70;;
72761;SDS011;60886;55.034;73.150;2023-04-09T03:56:57;6.70;;;1.80;;
72761;SDS011;60886;55.034;73.150;2023-04-09T04:00:07;7.14;;;1.80;;
72761;SDS011;60886;55.034;73.150;2023-04-09T04:03:35;6.50;;;1.60;;
72761;SDS011;60886;55.034;73.150;2023-04-09T04:06:51;6.40;;;1.80;;
72761;SDS011;60886;55.034;73.150;2023-04-09T04:10:10;6.56;;;2.08;;
72761;SDS011;60886;55.034;73.150;2023-04-09T04:13:15;6.10;;;1.60;;
72761;SDS011;60886;55.034;73.150;2023-04-09T04:16:24;7.05;;;1.98;;
72761;SDS011;60886;55.034;73.150;2023-04-09T04:19:26;6.00;;;1.60;;
72761;SDS011;60886;55.034;73.150;2023-04-09T04:22:39;8.02;;;1.90;;
72761;SDS011;60886;55.034;73.150;2023-04-09T04:25:42;6.20;;;1.65;;
72761;SDS011;60886;55.034;73.150;2023-04-09T04:28:48;7.03;;;1.98;;
72761;SDS011;60886;55.034;73.150;2023-04-09T04:32:01;7.20;;;1.83;;
72761;SDS011;60886;55.034;73.150;2023-04-09T04:35:09;7.22;;;1.60;;
72761;SDS011;60886;55.034;73.150;2023-04-09T04:38:17;5.40;;;1.60;;
72761;SDS011;60886;55.034;73.150;2023-04-09T04:41:20;8.27;;;1.80;;
72761;SDS011;60886;55.034;73.150;2023-04-09T04:44:29;6.50;;;2.00;;
72761;SDS011;60886;55.034;73.150;2023-04-09T04:47:54;6.77;;;1.80;;
72761;SDS011;60886;55.034;73.150;2023-04-09T04:50:58;5.47;;;1.73;;
72761;SDS011;60886;55.034;73.150;2023-04-09T04:54:07;6.93;;;1.67;;
72761;SDS011;60886;55.034;73.150;2023-04-09T04:57:09;6.30;;;1.80;;
72761;SDS011;60886;55.034;73.150;2023-04-09T05:00:19;7.15;;;2.00;;
72761;SDS011;60886;55.034;73.150;2023-04-09T05:03:22;5.50;;;1.63;;
72761;SDS011;60886;55.034;73.150;2023-04-09T05:06:49;5.80;;;1.65;;
72761;SDS011;60886;55.034;73.150;2023-04-09T05:09:55;5.63;;;1.70;;
72761;SDS011;60886;55.034;73.150;2023-04-09T05:13:01;6.03;;;1.73;;
72761;SDS011;60886;55.034;73.150;2023-04-09T05:16:14;6.88;;;1.67;;
72761;SDS011;60886;55.034;73.150;2023-04-09T05:19:18;6.60;;;1.93;;
72761;SDS011;60886;55.034;73.150;2023-04-09T05:22:20;6.07;;;1.50;;
72761;SDS011;60886;55.034;73.150;2023-04-09T05:25:33;6.35;;;1.65;;
72761;SDS011;60886;55.034;73.150;2023-04-09T05:28:36;5.67;;;1.57;;
72761;SDS011;60886;55.034;73.150;2023-04-09T05:31:49;5.68;;;1.40;;
72761;SDS011;60886;55.034;73.150;2023-04-09T05:35:11;5.17;;;1.57;;
72761;SDS011;60886;55.034;73.150;2023-04-09T05:38:16;13.35;;;1.95;;
72761;SDS011;60886;55.034;73.150;2023-04-09T05:41:24;10.23;;;1.80;;
72761;SDS011;60886;55.034;73.150;2023-04-09T05:44:43;10.07;;;1.85;;
72761;SDS011;60886;55.034;73.150;2023-04-09T05:47:50;5.13;;;1.30;;
72761;SDS011;60886;55.034;73.150;2023-04-09T05:50:54;5.32;;;1.30;;
72761;SDS011;60886;55.034;73.150;2023-04-09T05:53:59;5.65;;;1.60;;
72761;SDS011;60886;55.034;73.150;2023-04-09T05:57:06;5.63;;;1.70;;
72761;SDS011;60886;55.034;73.150;2023-04-09T06:00:12;4.61;;;1.34;;
72761;SDS011;60886;55.034;73.150;2023-04-09T06:03:21;5.15;;;1.52;;
72761;SDS011;60886;55.034;73.150;2023-04-09T06:06:23;5.55;;;1.40;;
72761;SDS011;60886;55.034;73.150;2023-04-09T06:09:29;6.10;;;1.50;;
72761;SDS011;60886;55.034;73.150;2023-04-09T06:12:35;5.87;;;1.43;;
72761;SDS011;60886;55.034;73.150;2023-04-09T06:15:43;5.35;;;1.40;;
72761;SDS011;60886;55.034;73.150;2023-04-09T06:18:44;4.83;;;1.10;;
72761;SDS011;60886;55.034;73.150;2023-04-09T06:21:46;6.07;;;1.40;;
72761;SDS011;60886;55.034;73.150;2023-04-09T06:24:48;5.78;;;1.30;;
72761;SDS011;60886;55.034;73.150;2023-04-09T06:27:49;5.07;;;1.35;;
72761;SDS011;60886;55.034;73.150;2023-04-09T06:30:52;4.40;;;1.17;;
72761;SDS011;60886;55.034;73.150;2023-04-09T06:33:54;4.85;;;1.00;;
72761;SDS011;60886;55.034;73.150;2023-04-09T06:37:01;4.57;;;1.37;;
72761;SDS011;60886;55.034;73.150;2023-04-09T06:40:07;4.90;;;1.30;;
72761;SDS011;60886;55.034;73.150;2023-04-09T06:43:09;4.97;;;1.33;;
72761;SDS011;60886;55.034;73.150;2023-04-09T06:46:22;4.60;;;1.00;;
72761;SDS011;60886;55.034;73.150;2023-04-09T06:49:24;5.75;;;1.40;;
72761;SDS011;60886;55.034;73.150;2023-04-09T06:52:25;7.27;;;1.53;;
72761;SDS011;60886;55.034;73.150;2023-04-09T06:55:27;4.75;;;1.10;;
72761;SDS011;60886;55.034;73.150;2023-04-09T06:58:28;6.47;;;1.50;;
72761;SDS011;60886;55.034;73.150;2023-04-09T07:01:30;5.05;;;1.20;;
72761;SDS011;60886;55.034;73.150;2023-04-09T07:04:31;4.90;;;1.10;;
72761;SDS011;60886;55.034;73.150;2023-04-09T07:07:32;4.37;;;1.43;;
72761;SDS011;60886;55.034;73.150;2023-04-09T07:10:45;5.50;;;1.25;;
72761;SDS011;60886;55.034;73.150;2023-04-09T07:13:47;4.97;;;1.00;;
72761;SDS011;60886;55.034;73.150;2023-04-09T07:16:48;4.97;;;1.10;;
72761;SDS011;60886;55.034;73.150;2023-04-09T07:19:50;8.40;;;1.35;;
72761;SDS011;60886;55.034;73.150;2023-04-09T07:22:52;6.10;;;1.20;;
72761;SDS011;60886;55.034;73.150;2023-04-09T07:25:53;4.63;;;1.17;;
72761;SDS011;60886;55.034;73.150;2023-04-09T07:28:54;3.97;;;1.10;;
72761;SDS011;60886;55.034;73.150;2023-04-09T07:31:56;4.55;;;1.00;;
72761;SDS011;60886;55.034;73.150;2023-04-09T07:35:07;4.34;;;1.14;;
72761;SDS011;60886;55.034;73.150;2023-04-09T07:38:09;4.68;;;1.00;;
72761;SDS011;60886;55.034;73.150;2023-04-09T07:41:15;4.93;;;1.15;;
72761;SDS011;60886;55.034;73.150;2023-04-09T07:44:22;9.32;;;1.50;;
72761;SDS011;60886;55.034;73.150;2023-04-09T07:47:25;6.55;;;1.35;;
72761;SDS011;60886;55.034;73.150;2023-04-09T07:50:26;7.37;;;1.20;;
72761;SDS011;60886;55.034;73.150;2023-04-09T07:53:28;3.85;;;1.00;;
72761;SDS011;60886;55.034;73.150;2023-04-09T07:56:30;4.03;;;1.00;;
72761;SDS011;60886;55.034;73.150;2023-04-09T07:59:32;3.53;;;1.00;;
72761;SDS011;60886;55.034;73.150;2023-04-09T08:02:34;4.47;;;1.10;;
72761;SDS011;60886;55.034;73.150;2023-04-09T08:05:36;7.03;;;1.57;;
72761;SDS011;60886;55.034;73.150;2023-04-09T08:08:38;9.90;;;1.38;;
72761;SDS011;60886;55.034;73.150;2023-04-09T08:11:42;8.83;;;1.20;;
72761;SDS011;60886;55.034;73.150;2023-04-09T08:14:45;5.40;;;1.10;;
72761;SDS011;60886;55.034;73.150;2023-04-09T08:17:46;3.43;;;1.00;;
72761;SDS011;60886;55.034;73.150;2023-04-09T08:20:58;4.00;;;1.00;;
72761;SDS011;60886;55.034;73.150;2023-04-09T08:24:04;4.28;;;1.15;;
72761;SDS011;60886;55.034;73.150;2023-04-09T08:27:06;4.53;;;1.10;;
72761;SDS011;60886;55.034;73.150;2023-04-09T08:30:08;6.63;;;1.40;;
72761;SDS011;60886;55.034;73.150;2023-04-09T08:33:20;4.43;;;1.02;;
72761;SDS011;60886;55.034;73.150;2023-04-09T08:36:22;5.00;;;1.27;;
72761;SDS011;60886;55.034;73.150;2023-04-09T08:39:30;4.97;;;1.10;;
72761;SDS011;60886;55.034;73.150;2023-04-09T08:42:32;4.72;;;1.00;;
72761;SDS011;60886;55.034;73.150;2023-04-09T08:45:35;5.70;;;1.10;;
72761;SDS011;60886;55.034;73.150;2023-04-09T08:48:37;4.80;;;1.23;;
72761;SDS011;60886;55.034;73.150;2023-04-09T08:51:44;5.10;;;1.07;;
72761;SDS011;60886;55.034;73.150;2023-04-09T08:54:47;6.70;;;1.30;;
72761;SDS011;60886;55.034;73.150;2023-04-09T08:57:53;4.37;;;1.30;;
72761;SDS011;60886;55.034;73.150;2023-04-09T09:00:54;6.50;;;1.40;;
72761;SDS011;60886;55.034;73.150;2023-04-09T09:03:57;4.90;;;1.25;;
72761;SDS011;60886;55.034;73.150;2023-04-09T09:07:05;5.30;;;1.40;;
72761;SDS011;60886;55.034;73.150;2023-04-09T09:10:07;6.55;;;1.60;;
72761;SDS011;60886;55.034;73.150;2023-04-09T09:13:15;5.78;;;1.30;;
72761;SDS011;60886;55.034;73.150;2023-04-09T09:16:39;6.13;;;1.40;;
72761;SDS011;60886;55.034;73.150;2023-04-09T09:20:17;7.68;;;1.30;;
72761;SDS011;60886;55.034;73.150;2023-04-09T09:23:33;4.82;;;1.30;;
72761;SDS011;60886;55.034;73.150;2023-04-09T09:26:36;9.13;;;1.85;;
72761;SDS011;60886;55.034;73.150;2023-04-09T09:29:48;4.60;;;1.30;;
72761;SDS011;60886;55.034;73.150;2023-04-09T09:33:12;5.00;;;1.37;;
72761;SDS011;60886;55.034;73.150;2023-04-09T09:36:13;5.50;;;1.40;;
72761;SDS011;60886;55.034;73.150;2023-04-09T09:39:16;6.93;;;1.30;;
72761;SDS011;60886;55.034;73.150;2023-04-09T09:42:18;5.20;;;1.50;;
72761;SDS011;60886;55.034;73.150;2023-04-09T09:45:19;10.18;;;3.03;;
72761;SDS011;60886;55.034;73.150;2023-04-09T09:48:21;8.60;;;2.70;;
72761;SDS011;60886;55.034;73.150;2023-04-09T09:51:24;11.23;;;2.25;;
72761;SDS011;60886;55.034;73.150;2023-04-09T09:54:27;7.47;;;2.30;;
72761;SDS011;60886;55.034;73.150;2023-04-09T09:57:36;15.83;;;7.03;;
72761;SDS011;60886;55.034;73.150;2023-04-09T10:00:40;7.80;;;2.42;;
72761;SDS011;60886;55.034;73.150;2023-04-09T10:03:43;6.03;;;1.45;;
72761;SDS011;60886;55.034;73.150;2023-04-09T10:06:46;6.80;;;1.93;;
72761;SDS011;60886;55.034;73.150;2023-04-09T10:09:49;8.77;;;3.00;;
72761;SDS011;60886;55.034;73.150;2023-04-09T10:12:52;8.30;;;2.53;;
72761;SDS011;60886;55.034;73.150;2023-04-09T10:15:54;6.75;;;2.60;;
72761;SDS011;60886;55.034;73.150;2023-04-09T10:18:56;7.55;;;2.10;;
72761;SDS011;60886;55.034;73.150;2023-04-09T10:22:09;10.47;;;4.07;;
72761;SDS011;60886;55.034;73.150;2023-04-09T10:25:13;7.03;;;2.60;;
72761;SDS011;60886;55.034;73.150;2023-04-09T10:28:16;10.20;;;3.97;;
72761;SDS011;60886;55.034;73.150;2023-04-09T10:31:18;11.33;;;5.50;;
72761;SDS011;60886;55.034;73.150;2023-04-09T10:34:22;11.07;;;4.70;;
72761;SDS011;60886;55.034;73.150;2023-04-09T10:37:25;8.55;;;2.80;;
72761;SDS011;60886;55.034;73.150;2023-04-09T10:40:27;6.43;;;2.20;;
72761;SDS011;60886;55.034;73.150;2023-04-09T10:43:30;8.60;;;2.90;;
72761;SDS011;60886;55.034;73.150;2023-04-09T10:46:38;15.77;;;6.85;;
72761;SDS011;60886;55.034;73.150;2023-04-09T10:49:43;6.90;;;2.15;;
72761;SDS011;60886;55.034;73.150;2023-04-09T10:52:44;7.30;;;2.28;;
72761;SDS011;60886;55.034;73.150;2023-04-09T10:55:49;10.82;;;4.07;;
72761;SDS011;60886;55.034;73.150;2023-04-09T10:58:51;8.98;;;3.65;;
72761;SDS011;60886;55.034;73.150;2023-04-09T11:01:53;6.25;;;1.90;;
72761;SDS011;60886;55.034;73.150;2023-04-09T11:05:04;8.77;;;3.28;;
72761;SDS011;60886;55.034;73.150;2023-04-09T11:08:26;7.50;;;1.70;;
72761;SDS011;60886;55.034;73.150;2023-04-09T11:11:40;10.60;;;2.92;;
72761;SDS011;60886;55.034;73.150;2023-04-09T11:14:41;7.90;;;2.10;;
72761;SDS011;60886;55.034;73.150;2023-04-09T11:17:43;7.40;;;2.60;;
72761;SDS011;60886;55.034;73.150;2023-04-09T11:20:45;6.87;;;1.80;;
72761;SDS011;60886;55.034;73.150;2023-04-09T11:23:50;6.07;;;1.70;;
72761;SDS011;60886;55.034;73.150;2023-04-09T11:26:57;7.50;;;1.60;;
72761;SDS011;60886;55.034;73.150;2023-04-09T11:30:07;9.98;;;3.28;;
72761;SDS011;60886;55.034;73.150;2023-04-09T11:33:09;9.23;;;2.50;;
72761;SDS011;60886;55.034;73.150;2023-04-09T11:36:10;7.87;;;2.40;;
72761;SDS011;60886;55.034;73.150;2023-04-09T11:39:12;6.50;;;1.80;;
72761;SDS011;60886;55.034;73.150;2023-04-09T11:42:13;5.10;;;1.45;;
72761;SDS011;60886;55.034;73.150;2023-04-09T11:45:15;8.10;;;2.45;;
72761;SDS011;60886;55.034;73.150;2023-04-09T11:48:29;7.03;;;1.80;;
72761;SDS011;60886;55.034;73.150;2023-04-09T11:51:30;6.25;;;1.70;;
72761;SDS011;60886;55.034;73.150;2023-04-09T11:54:32;6.32;;;1.67;;
72761;SDS011;60886;55.034;73.150;2023-04-09T11:57:41;7.40;;;2.40;;
72761;SDS011;60886;55.034;73.150;2023-04-09T12:00:44;9.20;;;2.57;;
72761;SDS011;60886;55.034;73.150;2023-04-09T12:03:50;6.90;;;1.80;;
72761;SDS011;60886;55.034;73.150;2023-04-09T12:06:55;6.83;;;1.67;;
72761;SDS011;60886;55.034;73.150;2023-04-09T12:10:08;6.39;;;1.74;;
72761;SDS011;60886;55.034;73.150;2023-04-09T12:13:10;6.47;;;1.73;;
72761;SDS011;60886;55.034;73.150;2023-04-09T12:16:12;7.00;;;1.77;;
72761;SDS011;60886;55.034;73.150;2023-04-09T12:19:14;5.97;;;1.50;;
72761;SDS011;60886;55.034;73.150;2023-04-09T12:22:17;6.30;;;1.60;;
72761;SDS011;60886;55.034;73.150;2023-04-09T12:25:18;6.38;;;1.58;;
72761;SDS011;60886;55.034;73.150;2023-04-09T12:28:20;5.88;;;1.90;;
72761;SDS011;60886;55.034;73.150;2023-04-09T12:31:21;6.88;;;1.83;;
72761;SDS011;60886;55.034;73.150;2023-04-09T12:34:23;7.80;;;2.00;;
72761;SDS011;60886;55.034;73.150;2023-04-09T12:37:24;6.50;;;1.50;;
72761;SDS011;60886;55.034;73.150;2023-04-09T12:40:26;6.37;;;1.80;;
72761;SDS011;60886;55.034;73.150;2023-04-09T12:43:27;6.75;;;1.88;;
72761;SDS011;60886;55.034;73.150;2023-04-09T12:46:29;6.20;;;1.80;;
72761;SDS011;60886;55.034;73.150;2023-04-09T12:49:52;6.50;;;1.70;;
72761;SDS011;60886;55.034;73.150;2023-04-09T12:52:54;6.88;;;2.00;;
72761;SDS011;60886;55.034;73.150;2023-04-09T12:55:56;6.15;;;2.10;;
72761;SDS011;60886;55.034;73.150;2023-04-09T12:59:17;6.68;;;2.00;;
72761;SDS011;60886;55.034;73.150;2023-04-09T13:02:19;6.60;;;2.00;;
72761;SDS011;60886;55.034;73.150;2023-04-09T13:05:24;7.55;;;1.90;;
72761;SDS011;60886;55.034;73.150;2023-04-09T13:08:26;5.65;;;1.70;;
72761;SDS011;60886;55.034;73.150;2023-04-09T13:11:47;5.93;;;1.90;;
72761;SDS011;60886;55.034;73.150;2023-04-09T13:14:54;6.85;;;2.15;;
72761;SDS011;60886;55.034;73.150;2023-04-09T13:18:16;8.00;;;2.00;;
72761;SDS011;60886;55.034;73.150;2023-04-09T13:21:17;6.83;;;1.90;;
72761;SDS011;60886;55.034;73.150;2023-04-09T13:24:22;6.15;;;2.00;;
72761;SDS011;60886;55.034;73.150;2023-04-09T13:27:23;5.97;;;1.92;;
72761;SDS011;60886;55.034;73.150;2023-04-09T13:30:27;7.05;;;2.10;;
72761;SDS011;60886;55.034;73.150;2023-04-09T13:33:28;11.95;;;2.72;;
72761;SDS011;60886;55.034;73.150;2023-04-09T13:36:30;12.13;;;3.73;;
72761;SDS011;60886;55.034;73.150;2023-04-09T13:39:42;13.60;;;4.47;;
72761;SDS011;60886;55.034;73.150;2023-04-09T13:43:05;13.23;;;5.20;;
72761;SDS011;60886;55.034;73.150;2023-04-09T13:46:30;11.60;;;5.20;;
72761;SDS011;60886;55.034;73.150;2023-04-09T13:49:50;12.90;;;4.93;;
72761;SDS011;60886;55.034;73.150;2023-04-09T13:53:11;13.15;;;4.15;;
72761;SDS011;60886;55.034;73.150;2023-04-09T13:56:31;12.77;;;4.60;;
72761;SDS011;60886;55.034;73.150;2023-04-09T13:59:51;18.43;;;4.77;;
72761;SDS011;60886;55.034;73.150;2023-04-09T14:02:57;18.13;;;4.80;;
72761;SDS011;60886;55.034;73.150;2023-04-09T14:05:59;13.88;;;4.60;;
72761;SDS011;60886;55.034;73.150;2023-04-09T14:09:07;13.27;;;4.63;;
72761;SDS011;60886;55.034;73.150;2023-04-09T14:12:15;14.20;;;4.20;;
72761;SDS011;60886;55.034;73.150;2023-04-09T14:15:16;12.80;;;2.83;;
72761;SDS011;60886;55.034;73.150;2023-04-09T14:18:17;14.10;;;2.67;;
72761;SDS011;60886;55.034;73.150;2023-04-09T14:21:19;11.50;;;2.57;;
72761;SDS011;60886;55.034;73.150;2023-04-09T14:24:21;8.85;;;2.08;;
72761;SDS011;60886;55.034;73.150;2023-04-09T14:27:23;10.27;;;2.57;;
72761;SDS011;60886;55.034;73.150;2023-04-09T14:30:24;10.33;;;2.37;;
72761;SDS011;60886;55.034;73.150;2023-04-09T14:33:35;6.78;;;2.13;;
72761;SDS011;60886;55.034;73.150;2023-04-09T14:36:37;9.18;;;2.90;;
72761;SDS011;60886;55.034;73.150;2023-04-09T14:39:38;13.18;;;3.53;;
72761;SDS011;60886;55.034;73.150;2023-04-09T14:42:41;11.60;;;3.95;;
72761;SDS011;60886;55.034;73.150;2023-04-09T14:45:42;10.70;;;3.40;;
72761;SDS011;60886;55.034;73.150;2023-04-09T14:48:43;13.48;;;3.70;;
72761;SDS011;60886;55.034;73.150;2023-04-09T14:51:45;10.48;;;3.80;;
72761;SDS011;60886;55.034;73.150;2023-04-09T14:54:46;11.33;;;3.50;;
72761;SDS011;60886;55.034;73.150;2023-04-09T14:57:48;11.60;;;3.10;;
72761;SDS011;60886;55.034;73.150;2023-04-09T15:00:49;9.88;;;3.20;;
72761;SDS011;60886;55.034;73.150;2023-04-09T15:03:51;10.33;;;3.10;;
72761;SDS011;60886;55.034;73.150;2023-04-09T15:06:52;7.10;;;2.60;;
72761;SDS011;60886;55.034;73.150;2023-04-09T15:09:55;14.02;;;3.00;;
72761;SDS011;60886;55.034;73.150;2023-04-09T15:13:04;8.52;;;2.38;;
72761;SDS011;60886;55.034;73.150;2023-04-09T15:16:06;9.90;;;2.47;;
72761;SDS011;60886;55.034;73.150;2023-04-09T15:19:13;9.25;;;2.70;;
72761;SDS011;60886;55.034;73.150;2023-04-09T15:22:20;6.80;;;2.35;;
72761;SDS011;60886;55.034;73.150;2023-04-09T15:25:31;8.00;;;2.20;;
72761;SDS011;60886;55.034;73.150;2023-04-09T15:28:43;9.13;;;2.60;;
72761;SDS011;60886;55.034;73.150;2023-04-09T15:31:55;9.10;;;2.58;;
72761;SDS011;60886;55.034;73.150;2023-04-09T15:35:07;9.16;;;2.40;;
72761;SDS011;60886;55.034;73.150;2023-04-09T15:38:08;7.80;;;2.50;;
72761;SDS011;60886;55.034;73.150;2023-04-09T15:41:10;8.47;;;2.80;;
72761;SDS011;60886;55.034;73.150;2023-04-09T15:44:11;11.00;;;2.95;;
72761;SDS011;60886;55.034;73.150;2023-04-09T15:47:13;9.07;;;2.78;;
72761;SDS011;60886;55.034;73.150;2023-04-09T15:50:14;11.73;;;2.97;;
72761;SDS011;60886;55.034;73.150;2023-04-09T15:53:15;9.57;;;2.70;;
72761;SDS011;60886;55.034;73.150;2023-04-09T15:56:17;9.35;;;3.20;;
72761;SDS011;60886;55.034;73.150;2023-04-09T15:59:20;9.48;;;3.28;;
72761;SDS011;60886;55.034;73.150;2023-04-09T16:02:21;11.03;;;3.10;;
72761;SDS011;60886;55.034;73.150;2023-04-09T16:05:23;9.90;;;2.80;;
72761;SDS011;60886;55.034;73.150;2023-04-09T16:08:24;9.68;;;3.25;;
72761;SDS011;60886;55.034;73.150;2023-04-09T16:11:26;9.32;;;2.72;;
72761;SDS011;60886;55.034;73.150;2023-04-09T16:14:32;9.60;;;2.77;;
72761;SDS011;60886;55.034;73.150;2023-04-09T16:17:41;11.27;;;2.43;;
72761;SDS011;60886;55.034;73.150;2023-04-09T16:20:42;8.98;;;2.45;;
72761;SDS011;60886;55.034;73.150;2023-04-09T16:23:44;8.38;;;2.30;;
72761;SDS011;60886;55.034;73.150;2023-04-09T16:26:55;7.67;;;2.40;;
72761;SDS011;60886;55.034;73.150;2023-04-09T16:30:07;8.10;;;2.21;;
72761;SDS011;60886;55.034;73.150;2023-04-09T16:33:09;9.48;;;2.50;;
72761;SDS011;60886;55.034;73.150;2023-04-09T16:36:10;8.60;;;2.42;;
72761;SDS011;60886;55.034;73.150;2023-04-09T16:39:12;9.68;;;2.20;;
72761;SDS011;60886;55.034;73.150;2023-04-09T16:42:15;7.47;;;2.40;;
72761;SDS011;60886;55.034;73.150;2023-04-09T16:45:16;7.25;;;2.03;;
72761;SDS011;60886;55.034;73.150;2023-04-09T16:48:18;8.93;;;2.57;;
72761;SDS011;60886;55.034;73.150;2023-04-09T16:51:19;8.40;;;2.80;;
72761;SDS011;60886;55.034;73.150;2023-04-09T16:54:20;8.30;;;2.45;;
72761;SDS011;60886;55.034;73.150;2023-04-09T16:57:22;7.30;;;2.60;;
72761;SDS011;60886;55.034;73.150;2023-04-09T17:00:31;7.10;;;2.47;;
72761;SDS011;60886;55.034;73.150;2023-04-09T17:03:32;7.53;;;2.35;;
72761;SDS011;60886;55.034;73.150;2023-04-09T17:06:33;8.83;;;2.23;;
72761;SDS011;60886;55.034;73.150;2023-04-09T17:09:35;8.20;;;2.05;;
72761;SDS011;60886;55.034;73.150;2023-04-09T17:12:36;8.43;;;2.10;;
72761;SDS011;60886;55.034;73.150;2023-04-09T17:15:48;11.90;;;2.50;;
72761;SDS011;60886;55.034;73.150;2023-04-09T17:18:51;6.57;;;1.70;;
72761;SDS011;60886;55.034;73.150;2023-04-09T17:21:53;7.97;;;2.10;;
72761;SDS011;60886;55.034;73.150;2023-04-09T17:24:54;8.57;;;1.90;;
72761;SDS011;60886;55.034;73.150;2023-04-09T17:27:56;7.05;;;2.08;;
72761;SDS011;60886;55.034;73.150;2023-04-09T17:31:09;6.93;;;2.00;;
72761;SDS011;60886;55.034;73.150;2023-04-09T17:34:17;7.10;;;2.20;;
72761;SDS011;60886;55.034;73.150;2023-04-09T17:37:19;6.82;;;2.08;;
72761;SDS011;60886;55.034;73.150;2023-04-09T17:40:21;6.70;;;2.17;;
72761;SDS011;60886;55.034;73.150;2023-04-09T17:43:28;7.00;;;2.33;;
72761;SDS011;60886;55.034;73.150;2023-04-09T17:46:39;7.03;;;2.10;;
72761;SDS011;60886;55.034;73.150;2023-04-09T17:49:51;6.40;;;2.03;;
72761;SDS011;60886;55.034;73.150;2023-04-09T17:52:52;7.20;;;2.10;;
72761;SDS011;60886;55.034;73.150;2023-04-09T17:55:55;7.05;;;2.15;;
72761;SDS011;60886;55.034;73.150;2023-04-09T17:58:56;8.75;;;2.30;;
72761;SDS011;60886;55.034;73.150;2023-04-09T18:02:07;7.80;;;2.10;;
72761;SDS011;60886;55.034;73.150;2023-04-09T18:05:09;6.18;;;2.12;;
72761;SDS011;60886;55.034;73.150;2023-04-09T18:08:11;6.18;;;2.05;;
72761;SDS011;60886;55.034;73.150;2023-04-09T18:11:12;6.95;;;2.03;;
72761;SDS011;60886;55.034;73.150;2023-04-09T18:14:15;7.97;;;2.37;;
72761;SDS011;60886;55.034;73.150;2023-04-09T18:17:16;7.53;;;2.40;;
72761;SDS011;60886;55.034;73.150;2023-04-09T18:20:18;9.20;;;2.43;;
72761;SDS011;60886;55.034;73.150;2023-04-09T18:23:20;7.70;;;2.30;;
72761;SDS011;60886;55.034;73.150;2023-04-09T18:26:23;6.83;;;2.17;;